Dn Vatan — TCZN6 — position and weather

sailwx.info

Track history (hours):
 
Tides and Currents Weather Stations Pressure Air Temp Water Temp Dewpoint Dewpoint Depression Visibility Wind Speed Wind Dir Waves Ship Positions

Dn Vatan

Last reported at 2014-Aug-22 15:31 UTC. Time now 2014-Aug-23 03:38 UTC.
Position N 45°04' E 036°39'.

Length 196 m; draft 6.6 m.

Type: Cargo ship. MMSI: 270991365.

Date/timePositionNaut miles runAvg speedWind from/ knotsBaromVisibWave heightAir tempDewpointWater temp
2014-Aug-22 15:31N 45°04' E 036°39'0 0.0
2014-Aug-22 14:29N 45°04' E 036°39'0 0.0
2014-Aug-22 13:31N 45°04' E 036°39'  
2014-Aug-17 08:21N 45°04' E 036°39'0 0.0
2014-Aug-16 18:33N 45°04' E 036°39'0 0.0
2014-Aug-16 17:33N 45°04' E 036°39'0 0.0
2014-Aug-16 16:33N 45°04' E 036°39'0 0.0
2014-Aug-16 15:33N 45°04' E 036°39'0 0.0
2014-Aug-16 14:33N 45°04' E 036°39'0 0.0
2014-Aug-16 13:30N 45°04' E 036°39'0 0.0
2014-Aug-16 12:30N 45°04' E 036°39'0 0.0
2014-Aug-16 11:33N 45°04' E 036°39'0 0.0
2014-Aug-16 10:33N 45°04' E 036°39'0 0.1
2014-Aug-16 09:33N 45°04' E 036°39'0 0.0
2014-Aug-16 06:33N 45°04' E 036°39'0 0.0
2014-Aug-16 05:33N 45°04' E 036°39'4 3.6
2014-Aug-16 04:33N 45°01' E 036°41'13 9.6
2014-Aug-16 03:10N 44°48' E 036°36'2413.8
2014-Aug-16 01:23N 44°35' E 036°07'1214.0
2014-Aug-16 00:34N 44°29' E 035°54'1413.9
2014-Aug-15 23:33N 44°21' E 035°37'1513.9
2014-Aug-15 22:30N 44°14' E 035°19'1314.0
2014-Aug-15 21:33N 44°07' E 035°03'1413.8
2014-Aug-15 20:33N 43°60' E 034°47'1313.5
2014-Aug-15 19:33N 43°52' E 034°32'30113.1
2014-Aug-14 20:32N 40°57' E 028°59'9 8.9
2014-Aug-14 19:33N 40°49' E 028°57'1 0.6
2014-Aug-14 17:33N 40°50' E 028°57'2 2.0
2014-Aug-14 16:18N 40°47' E 028°56'1 1.3
2014-Aug-14 15:24N 40°48' E 028°55'1 1.1
2014-Aug-14 14:06N 40°50' E 028°54'1 0.7
2014-Aug-14 13:18N 40°49' E 028°53'4 5.0
2014-Aug-14 12:32N 40°46' E 028°53'2 1.2
2014-Aug-14 11:18N 40°46' E 028°55'1 1.6
2014-Aug-14 10:24N 40°48' E 028°55'2 1.0
2014-Aug-14 08:33N 40°49' E 028°54'1613.6
2014-Aug-14 07:21N 40°49' E 028°33'4214.0
2014-Aug-14 04:19N 40°43' E 027°37'4113.2
2014-Aug-14 01:13N 40°27' E 026°48'3710.1
2014-Aug-13 21:33N 40°01' E 026°12'6 5.5
2014-Aug-13 20:33N 40°00' E 026°05'6 5.5
2014-Aug-13 19:33N 39°58' E 025°59'2711.9
2014-Aug-13 17:19N 39°32' E 025°48'1012.6
2014-Aug-13 16:33N 39°23' E 025°47'1414.0
2014-Aug-13 15:33N 39°09' E 025°44'1414.2
2014-Aug-13 14:33N 38°55' E 025°45'1413.6
2014-Aug-13 13:33N 38°41' E 025°43'1313.3
2014-Aug-13 12:33N 38°28' E 025°43'1313.3
2014-Aug-13 11:33N 38°15' E 025°46'1413.6
2014-Aug-13 10:30N 38°01' E 025°49'1314.0
2014-Aug-13 09:33N 37°47' E 025°51'1413.8
2014-Aug-13 08:33N 37°34' E 025°52'1313.5
2014-Aug-13 07:33N 37°24' E 026°04'1514.9
2014-Aug-13 06:33N 37°14' E 026°18'1514.5
2014-Aug-13 05:33N 37°05' E 026°32'1414.0
2014-Aug-13 04:34N 36°53' E 026°42'1413.7
2014-Aug-13 03:33N 36°41' E 026°50'1312.5
2014-Aug-13 02:33N 36°32' E 027°02'3215.0
2014-Aug-13 00:27N 36°29' E 027°41'1414.5
2014-Aug-12 23:29N 36°27' E 027°58'  
Track history (hours):
 
Tides and Currents Weather Stations Pressure Air Temp Water Temp Dewpoint Dewpoint Depression Visibility Wind Speed Wind Dir Waves Ship Positions

Dn Vatan

Last reported at 2014-Aug-22 15:31 UTC. Time now 2014-Aug-23 03:38 UTC.
Position N 45°04' E 036°39'.

Length 196 m; draft 6.6 m.

Type: Cargo ship. MMSI: 270991365.

Date/timePositionNaut miles runAvg speedWind from/ knotsBaromVisibWave heightAir tempDewpointWater temp
2014-Aug-22 15:31N 45°04' E 036°39'0 0.0
2014-Aug-22 14:29N 45°04' E 036°39'0 0.0
2014-Aug-22 13:31N 45°04' E 036°39'  
2014-Aug-17 08:21N 45°04' E 036°39'0 0.0
2014-Aug-16 18:33N 45°04' E 036°39'0 0.0
2014-Aug-16 17:33N 45°04' E 036°39'0 0.0
2014-Aug-16 16:33N 45°04' E 036°39'0 0.0
2014-Aug-16 15:33N 45°04' E 036°39'0 0.0
2014-Aug-16 14:33N 45°04' E 036°39'0 0.0
2014-Aug-16 13:30N 45°04' E 036°39'0 0.0
2014-Aug-16 12:30N 45°04' E 036°39'0 0.0
2014-Aug-16 11:33N 45°04' E 036°39'0 0.0
2014-Aug-16 10:33N 45°04' E 036°39'0 0.1
2014-Aug-16 09:33N 45°04' E 036°39'0 0.0
2014-Aug-16 06:33N 45°04' E 036°39'0 0.0
2014-Aug-16 05:33N 45°04' E 036°39'4 3.6
2014-Aug-16 04:33N 45°01' E 036°41'13 9.6
2014-Aug-16 03:10N 44°48' E 036°36'2413.8
2014-Aug-16 01:23N 44°35' E 036°07'1214.0
2014-Aug-16 00:34N 44°29' E 035°54'1413.9
2014-Aug-15 23:33N 44°21' E 035°37'1513.9
2014-Aug-15 22:30N 44°14' E 035°19'1314.0
2014-Aug-15 21:33N 44°07' E 035°03'1413.8
2014-Aug-15 20:33N 43°60' E 034°47'1313.5
2014-Aug-15 19:33N 43°52' E 034°32'30113.1
2014-Aug-14 20:32N 40°57' E 028°59'9 8.9
2014-Aug-14 19:33N 40°49' E 028°57'1 0.6
2014-Aug-14 17:33N 40°50' E 028°57'2 2.0
2014-Aug-14 16:18N 40°47' E 028°56'1 1.3
2014-Aug-14 15:24N 40°48' E 028°55'1 1.1
2014-Aug-14 14:06N 40°50' E 028°54'1 0.7
2014-Aug-14 13:18N 40°49' E 028°53'4 5.0
2014-Aug-14 12:32N 40°46' E 028°53'2 1.2
2014-Aug-14 11:18N 40°46' E 028°55'1 1.6
2014-Aug-14 10:24N 40°48' E 028°55'2 1.0
2014-Aug-14 08:33N 40°49' E 028°54'1613.6
2014-Aug-14 07:21N 40°49' E 028°33'4214.0
2014-Aug-14 04:19N 40°43' E 027°37'4113.2
2014-Aug-14 01:13N 40°27' E 026°48'3710.1
2014-Aug-13 21:33N 40°01' E 026°12'6 5.5
2014-Aug-13 20:33N 40°00' E 026°05'6 5.5
2014-Aug-13 19:33N 39°58' E 025°59'2711.9
2014-Aug-13 17:19N 39°32' E 025°48'1012.6
2014-Aug-13 16:33N 39°23' E 025°47'1414.0
2014-Aug-13 15:33N 39°09' E 025°44'1414.2
2014-Aug-13 14:33N 38°55' E 025°45'1413.6
2014-Aug-13 13:33N 38°41' E 025°43'1313.3
2014-Aug-13 12:33N 38°28' E 025°43'1313.3
2014-Aug-13 11:33N 38°15' E 025°46'1413.6
2014-Aug-13 10:30N 38°01' E 025°49'1314.0
2014-Aug-13 09:33N 37°47' E 025°51'1413.8
2014-Aug-13 08:33N 37°34' E 025°52'1313.5
2014-Aug-13 07:33N 37°24' E 026°04'1514.9
2014-Aug-13 06:33N 37°14' E 026°18'1514.5
2014-Aug-13 05:33N 37°05' E 026°32'1414.0
2014-Aug-13 04:34N 36°53' E 026°42'1413.7
2014-Aug-13 03:33N 36°41' E 026°50'1312.5
2014-Aug-13 02:33N 36°32' E 027°02'3215.0
2014-Aug-13 00:27N 36°29' E 027°41'1414.5
2014-Aug-12 23:29N 36°27' E 027°58'  

Dump ship's entire track history